Time;durP1;ratioP1;P1;durP2;ratioP2;P2;SDS_P1;SDS_P2;PMS_P1;PMS_P2;Temp;Humidity;BMP_temperature;BMP_pressure;BME280_temperature;BME280_humidity;BME280_pressure;Samples;Min_cycle;Max_cycle;Signal;HPM_P1;HPM_P2
2021/03/21 00:01:28;;;;;;;23.33;11.70;;;-1.70;73.70;;;;;;4877846;29;20105;-85
2021/03/21 00:03:54;;;;;;;21.77;11.30;;;-1.70;73.70;;;;;;4877784;29;20033;-86
2021/03/21 00:06:19;;;;;;;21.45;11.00;;;-1.70;74.40;;;;;;4878708;29;20029;-85
2021/03/21 00:08:47;;;;;;;21.08;11.20;;;-1.70;73.80;;;;;;4879682;29;20538;-86
2021/03/21 00:11:13;;;;;;;20.85;10.90;;;-1.70;73.80;;;;;;4875246;29;20092;-86
2021/03/21 00:13:39;;;;;;;19.40;10.02;;;-1.70;74.30;;;;;;4878445;29;20029;-86
2021/03/21 00:16:06;;;;;;;23.27;10.95;;;-1.70;74.30;;;;;;4876996;29;20480;-85
2021/03/21 00:18:36;;;;;;;24.25;11.75;;;-1.70;74.50;;;;;;4877773;29;20025;-85
2021/03/21 00:21:02;;;;;;;18.67;9.80;;;-1.60;74.20;;;;;;4876715;29;20039;-87
2021/03/21 00:23:28;;;;;;;25.02;11.02;;;-1.60;74.40;;;;;;4881296;29;20029;-87
2021/03/21 00:25:54;;;;;;;25.17;10.88;;;-1.60;74.20;;;;;;4877296;29;20044;-85
2021/03/21 00:28:27;;;;;;;19.35;9.57;;;-1.60;73.80;;;;;;4876849;29;20032;-85
2021/03/21 00:30:53;;;;;;;19.33;9.95;;;-1.60;74.70;;;;;;4876406;29;20033;-89
2021/03/21 00:33:23;;;;;;;24.85;10.85;;;-1.60;74.30;;;;;;4877508;29;20040;-86
2021/03/21 00:35:51;;;;;;;22.48;10.98;;;-1.50;74.30;;;;;;4878117;29;20043;-87
2021/03/21 00:38:28;;;;;;;22.52;10.88;;;-1.60;74.00;;;;;;4876719;29;20032;-86
2021/03/21 00:40:55;;;;;;;20.15;10.13;;;-1.50;74.30;;;;;;4867467;29;20037;-86
2021/03/21 00:43:21;;;;;;;21.27;10.57;;;-1.50;74.00;;;;;;4873060;29;20463;-87
2021/03/21 00:45:47;;;;;;;21.08;10.65;;;-1.50;74.30;;;;;;4879637;29;20037;-88
2021/03/21 00:48:41;;;;;;;22.55;10.50;;;-1.50;74.10;;;;;;4880025;29;20403;-88
2021/03/21 00:51:08;;;;;;;20.08;10.15;;;-1.60;74.20;;;;;;4877224;29;20113;-87
2021/03/21 00:53:33;;;;;;;24.42;10.95;;;-1.50;74.40;;;;;;4877917;29;20368;-88
2021/03/21 00:56:00;;;;;;;22.92;10.98;;;-1.50;74.10;;;;;;4878858;29;20089;-89
2021/03/21 00:58:25;;;;;;;20.00;10.95;;;-1.50;74.10;;;;;;4879547;29;20043;-89
2021/03/21 01:00:57;;;;;;;19.58;10.00;;;-1.50;74.30;;;;;;4886552;29;20036;-87
2021/03/21 01:03:24;;;;;;;27.25;12.07;;;-1.50;74.30;;;;;;4878942;29;20045;-87
2021/03/21 01:05:54;;;;;;;20.42;9.38;;;-1.40;74.30;;;;;;4877983;29;20044;-88
2021/03/21 01:08:32;;;;;;;20.52;10.07;;;-1.40;74.30;;;;;;4877810;29;20116;-87
2021/03/21 01:11:07;;;;;;;22.52;10.65;;;-1.40;74.10;;;;;;4863206;29;20048;-88
2021/03/21 01:13:33;;;;;;;21.92;10.50;;;-1.40;74.30;;;;;;4884211;29;20049;-89
2021/03/21 01:16:00;;;;;;;22.63;10.60;;;-1.50;74.50;;;;;;4883678;29;20029;-88
2021/03/21 01:18:28;;;;;;;24.58;11.38;;;-1.50;74.30;;;;;;4875141;29;20047;-88
2021/03/21 01:20:55;;;;;;;20.23;10.38;;;-1.50;74.30;;;;;;4877231;29;20864;-88
2021/03/21 01:23:21;;;;;;;20.52;10.18;;;-1.50;74.70;;;;;;4877295;29;20037;-88
2021/03/21 01:25:47;;;;;;;24.20;10.75;;;-1.50;74.50;;;;;;4884143;29;20024;-86
2021/03/21 01:28:24;;;;;;;22.23;10.75;;;-1.50;74.90;;;;;;4876835;29;20488;-87
2021/03/21 01:30:52;;;;;;;21.92;10.30;;;-1.50;74.60;;;;;;4895105;29;20040;-87
2021/03/21 01:33:18;;;;;;;19.73;9.82;;;-1.50;74.60;;;;;;4877215;29;20044;-86
2021/03/21 01:35:43;;;;;;;22.23;10.75;;;-1.40;74.60;;;;;;4861011;29;20093;-87
2021/03/21 01:38:09;;;;;;;19.23;10.07;;;-1.40;74.50;;;;;;4877515;29;20060;-87
2021/03/21 01:40:36;;;;;;;22.52;9.70;;;-1.40;74.50;;;;;;4873164;29;20084;-87
2021/03/21 01:43:03;;;;;;;20.90;11.13;;;-1.30;74.20;;;;;;4880252;29;20081;-87
2021/03/21 01:45:48;;;;;;;19.80;9.50;;;-1.30;74.10;;;;;;4862406;29;20055;-87
2021/03/21 01:48:32;;;;;;;23.02;10.05;;;-1.30;74.50;;;;;;4871746;29;20048;-87
2021/03/21 01:51:05;;;;;;;22.42;10.75;;;-1.40;74.40;;;;;;4877564;29;20029;-88
2021/03/21 01:53:33;;;;;;;23.48;10.85;;;-1.40;74.30;;;;;;4877116;29;20041;-86
2021/03/21 01:56:00;;;;;;;20.13;9.93;;;-1.40;74.60;;;;;;4877450;29;20440;-87
2021/03/21 01:58:29;;;;;;;18.33;10.07;;;-1.40;74.50;;;;;;4877591;29;20041;-87
2021/03/21 02:01:00;;;;;;;19.00;9.50;;;-1.40;74.70;;;;;;4878858;29;20056;-87
2021/03/21 02:03:26;;;;;;;19.80;9.85;;;-1.50;74.50;;;;;;4856290;29;20424;-87
2021/03/21 02:06:06;;;;;;;20.50;10.07;;;-1.50;74.70;;;;;;4879716;29;20041;-87
2021/03/21 02:08:54;;;;;;;20.50;9.55;;;-1.50;75.30;;;;;;4877479;29;20439;-87
2021/03/21 02:11:23;;;;;;;20.58;9.48;;;-1.60;75.00;;;;;;4876694;29;20029;-88
2021/03/21 02:14:04;;;;;;;25.65;11.70;;;-1.60;74.80;;;;;;4878440;29;20041;-87
2021/03/21 02:16:37;;;;;;;20.88;10.18;;;-1.60;75.10;;;;;;4872394;29;20026;-88
2021/03/21 02:19:20;;;;;;;16.98;9.23;;;-1.60;75.60;;;;;;4875945;29;20069;-87
2021/03/21 02:21:54;;;;;;;17.23;9.13;;;-1.70;75.70;;;;;;4878757;29;20029;-87
2021/03/21 02:24:57;;;;;;;20.08;9.18;;;-1.70;75.50;;;;;;4874630;29;20039;-88
2021/03/21 02:27:51;;;;;;;17.20;8.68;;;-1.70;75.50;;;;;;4874293;29;20037;-87
2021/03/21 02:30:36;;;;;;;16.70;7.97;;;-1.70;75.60;;;;;;4870490;29;20470;-87
2021/03/21 02:33:14;;;;;;;15.75;8.02;;;-1.60;75.50;;;;;;4878024;29;20065;-88
2021/03/21 02:36:02;;;;;;;17.77;8.18;;;-1.60;75.40;;;;;;4876742;29;20116;-88
2021/03/21 02:38:50;;;;;;;14.98;7.43;;;-1.60;75.40;;;;;;4877029;29;20025;-87
2021/03/21 02:41:27;;;;;;;15.60;7.20;;;-1.60;75.00;;;;;;4877412;29;20127;-87
2021/03/21 02:43:59;;;;;;;16.40;8.30;;;-1.60;75.20;;;;;;4877156;29;20492;-87
2021/03/21 02:46:30;;;;;;;21.27;9.00;;;-1.50;75.00;;;;;;4877104;29;20025;-88
2021/03/21 02:49:02;;;;;;;18.98;8.15;;;-1.50;74.90;;;;;;4878554;29;20112;-87
2021/03/21 02:51:39;;;;;;;14.13;7.45;;;-1.50;75.10;;;;;;4873681;29;20021;-88
2021/03/21 02:54:19;;;;;;;15.88;7.25;;;-1.40;75.00;;;;;;4877150;29;20040;-88
2021/03/21 02:56:49;;;;;;;19.80;8.13;;;-1.40;74.90;;;;;;4885215;29;20027;-87
2021/03/21 02:59:21;;;;;;;16.15;7.30;;;-1.30;75.00;;;;;;4885691;29;20175;-88
2021/03/21 03:01:58;;;;;;;13.48;7.07;;;-1.30;74.70;;;;;;4880476;29;20029;-88
2021/03/21 03:04:35;;;;;;;16.75;6.80;;;-1.30;75.50;;;;;;4883169;29;20024;-88
2021/03/21 03:07:47;;;;;;;14.82;7.65;;;-1.30;74.50;;;;;;4880987;29;20037;-88
2021/03/21 03:10:25;;;;;;;15.20;6.93;;;-1.20;74.40;;;;;;4878339;29;20120;-87
2021/03/21 03:13:06;;;;;;;16.10;6.43;;;-1.20;74.10;;;;;;4876265;29;20544;-87
2021/03/21 03:15:34;;;;;;;14.73;7.20;;;-1.20;74.40;;;;;;4879412;29;20093;-87
2021/03/21 03:18:08;;;;;;;11.52;6.07;;;-1.20;74.40;;;;;;4888673;29;20040;-88
2021/03/21 03:20:42;;;;;;;15.82;6.47;;;-1.20;74.40;;;;;;4886078;29;20395;-88
2021/03/21 03:23:15;;;;;;;14.13;6.95;;;-1.20;74.40;;;;;;4887742;29;20089;-88
2021/03/21 03:26:08;;;;;;;15.43;6.30;;;-1.20;74.50;;;;;;4879926;29;20044;-88
2021/03/21 03:28:43;;;;;;;11.25;6.85;;;-1.20;74.70;;;;;;4868575;29;20043;-87
2021/03/21 03:31:13;;;;;;;15.20;6.80;;;-1.20;74.70;;;;;;4879589;29;20161;-87
2021/03/21 03:33:39;;;;;;;11.73;6.28;;;-1.20;75.50;;;;;;4880300;29;20064;-88
2021/03/21 03:36:08;;;;;;;14.00;6.80;;;-1.20;74.80;;;;;;4875731;29;20475;-86
2021/03/21 03:38:36;;;;;;;16.20;7.22;;;-1.10;74.90;;;;;;4880443;29;20044;-87
2021/03/21 03:41:16;;;;;;;13.68;6.93;;;-1.20;74.80;;;;;;4885697;29;20021;-88
2021/03/21 03:43:56;;;;;;;10.75;6.40;;;-1.10;75.10;;;;;;4853862;29;20036;-87
2021/03/21 03:46:36;;;;;;;15.25;6.88;;;-1.20;75.00;;;;;;4865788;29;20108;-88
2021/03/21 03:49:24;;;;;;;12.60;6.85;;;-1.10;75.20;;;;;;4883994;29;20439;-89
2021/03/21 03:52:25;;;;;;;15.38;6.50;;;-1.20;75.80;;;;;;4879245;29;20033;-88
2021/03/21 03:55:05;;;;;;;14.75;7.05;;;-1.10;75.40;;;;;;4848321;29;20053;-87
2021/03/21 03:57:52;;;;;;;12.83;6.93;;;-1.20;75.90;;;;;;4859409;29;20102;-88
2021/03/21 04:00:32;;;;;;;16.35;6.70;;;-1.20;75.70;;;;;;4858126;29;20294;-87
2021/03/21 04:03:11;;;;;;;11.20;6.45;;;-1.10;75.90;;;;;;4843741;29;20045;-87
2021/03/21 04:06:03;;;;;;;14.05;7.57;;;-1.10;75.60;;;;;;4854094;29;20044;-89
2021/03/21 04:08:53;;;;;;;15.93;6.55;;;-1.00;75.80;;;;;;4859065;29;20504;-89
2021/03/21 04:11:25;;;;;;;15.00;6.93;;;-1.00;75.50;;;;;;4858236;29;20041;-88
2021/03/21 04:14:04;;;;;;;14.13;6.72;;;-1.00;75.50;;;;;;4860644;29;20138;-88
2021/03/21 04:16:45;;;;;;;19.98;7.35;;;-1.00;75.70;;;;;;4855039;29;20556;-88
2021/03/21 04:19:13;;;;;;;13.23;6.63;;;-1.00;75.60;;;;;;4858265;29;20053;-86
2021/03/21 04:21:52;;;;;;;13.48;7.35;;;-0.90;76.00;;;;;;4858218;29;20061;-87
2021/03/21 04:24:24;;;;;;;12.82;7.03;;;-0.90;75.60;;;;;;4858814;29;20041;-88
2021/03/21 04:26:59;;;;;;;14.23;7.28;;;-0.90;75.60;;;;;;4843634;29;20037;-88
2021/03/21 04:29:44;;;;;;;18.40;6.70;;;-0.90;75.70;;;;;;4861715;29;20064;-87
2021/03/21 04:32:17;;;;;;;12.75;7.07;;;-0.90;75.70;;;;;;4869319;29;20056;-88
2021/03/21 04:34:49;;;;;;;12.98;7.05;;;-0.90;75.80;;;;;;4879040;29;20025;-87
2021/03/21 04:37:17;;;;;;;15.73;7.38;;;-0.80;75.80;;;;;;4878309;29;20068;-87
2021/03/21 04:39:44;;;;;;;18.20;8.85;;;-0.80;75.60;;;;;;4875864;29;20044;-87
2021/03/21 04:42:42;;;;;;;15.88;7.90;;;-0.80;75.70;;;;;;4881660;29;20116;-87
2021/03/21 04:45:40;;;;;;;15.63;7.18;;;-0.80;75.50;;;;;;4873395;29;20524;-88
2021/03/21 04:48:11;;;;;;;14.98;6.97;;;-0.80;75.60;;;;;;4858408;29;20041;-87
2021/03/21 04:50:36;;;;;;;;;;;-0.70;75.30;;;;;;4844025;29;20136;-87
2021/03/21 04:53:35;;;;;;;17.08;7.53;;;-0.70;74.90;;;;;;4857701;29;19998;-88
2021/03/21 04:56:08;;;;;;;13.10;7.28;;;-0.70;75.00;;;;;;4813378;29;20046;-87
2021/03/21 04:58:41;;;;;;;13.98;6.80;;;-0.70;75.10;;;;;;4810760;29;20426;-87
2021/03/21 05:01:22;;;;;;;11.98;6.38;;;-0.70;75.30;;;;;;4798453;29;20143;-87
2021/03/21 05:03:52;;;;;;;13.15;6.40;;;-0.60;75.40;;;;;;4808931;29;20049;-86
2021/03/21 05:06:54;;;;;;;17.33;6.82;;;-0.60;74.80;;;;;;4806672;29;20054;-88
2021/03/21 05:09:31;;;;;;;12.90;6.40;;;-0.70;74.50;;;;;;4817749;29;20089;-88
2021/03/21 05:12:12;;;;;;;14.90;7.07;;;-0.60;74.50;;;;;;4807617;29;20040;-89
2021/03/21 05:14:40;;;;;;;;;;;-0.50;74.50;;;;;;4804481;29;20072;-88
2021/03/21 05:17:11;;;;;;;14.07;6.72;;;-0.50;74.50;;;;;;4799066;29;19921;-87
2021/03/21 05:19:52;;;;;;;14.57;6.78;;;-0.50;74.20;;;;;;4810879;29;20114;-87
2021/03/21 05:22:23;;;;;;;14.57;7.07;;;-0.50;74.20;;;;;;4803302;29;20046;-88
2021/03/21 05:25:01;;;;;;;14.35;6.95;;;-0.50;73.80;;;;;;4823618;29;20089;-88
2021/03/21 05:27:41;;;;;;;16.88;7.22;;;-0.40;74.30;;;;;;4834102;29;20065;-87
2021/03/21 05:30:27;;;;;;;12.90;6.50;;;-0.30;74.40;;;;;;4828652;29;20167;-87
2021/03/21 05:32:53;;;;;;;12.15;6.20;;;-0.30;75.10;;;;;;4853562;29;20309;-85
2021/03/21 05:35:24;;;;;;;11.40;6.32;;;-0.30;74.20;;;;;;4873486;29;20037;-86
2021/03/21 05:38:00;;;;;;;15.82;7.95;;;-0.20;74.40;;;;;;4882631;29;20047;-87
2021/03/21 05:41:04;;;;;;;12.00;6.75;;;-0.20;73.70;;;;;;4864952;29;20028;-86
2021/03/21 05:43:54;;;;;;;10.90;5.93;;;-0.20;73.70;;;;;;4833444;29;20042;-87
2021/03/21 05:46:57;;;;;;;11.25;6.68;;;-0.20;73.70;;;;;;4837829;29;20113;-87
2021/03/21 05:49:37;;;;;;;12.82;6.68;;;-0.20;73.90;;;;;;4838211;29;20584;-87
2021/03/21 05:52:27;;;;;;;13.85;6.35;;;-0.20;73.90;;;;;;4834671;29;20031;-87
2021/03/21 05:55:14;;;;;;;11.07;6.07;;;-0.20;73.60;;;;;;4822745;29;20058;-86
2021/03/21 05:58:01;;;;;;;14.80;6.40;;;-0.20;73.70;;;;;;4834424;29;20050;-88
2021/03/21 06:01:08;;;;;;;11.57;6.45;;;-0.20;73.80;;;;;;4834081;29;20032;-87
2021/03/21 06:04:11;;;;;;;11.50;6.30;;;-0.20;73.90;;;;;;4801136;29;20130;-86
2021/03/21 06:07:07;;;;;;;13.77;6.32;;;-0.20;73.40;;;;;;4802048;29;20030;-85
2021/03/21 06:10:03;;;;;;;13.45;7.22;;;-0.10;73.70;;;;;;4801531;29;20059;-87
2021/03/21 06:13:01;;;;;;;13.68;6.15;;;0.00;73.80;;;;;;4801046;29;20088;-86
2021/03/21 06:15:55;;;;;;;13.82;6.68;;;0.00;73.20;;;;;;4827314;29;20069;-86
2021/03/21 06:18:29;;;;;;;18.00;7.45;;;0.00;72.70;;;;;;4820437;29;20046;-86
2021/03/21 06:21:00;;;;;;;11.30;5.85;;;0.10;73.00;;;;;;4820008;29;20038;-86
2021/03/21 06:24:03;;;;;;;13.90;6.78;;;0.10;72.90;;;;;;4819531;29;20062;-86
2021/03/21 06:26:45;;;;;;;11.80;5.80;;;0.20;72.70;;;;;;4819131;29;20280;-86
2021/03/21 06:29:19;;;;;;;11.73;6.15;;;0.20;72.00;;;;;;4822623;29;20038;-86
2021/03/21 06:31:48;;;;;;;14.82;6.55;;;0.20;72.20;;;;;;4809248;29;20038;-85
2021/03/21 06:34:32;;;;;;;12.52;6.85;;;0.30;72.40;;;;;;4822186;29;20151;-87
2021/03/21 06:37:14;;;;;;;10.88;6.22;;;0.30;71.90;;;;;;4822245;29;20122;-87
2021/03/21 06:40:15;;;;;;;13.50;6.47;;;0.40;72.20;;;;;;4827271;29;20091;-87
2021/03/21 06:42:58;;;;;;;;;;;0.50;71.30;;;;;;4850977;29;20045;-85
2021/03/21 06:46:00;;;;;;;13.35;6.53;;;0.50;71.10;;;;;;4859508;29;19968;-85
2021/03/21 06:48:44;;;;;;;13.60;6.35;;;0.70;70.90;;;;;;4857267;29;20041;-85
2021/03/21 06:51:12;;;;;;;12.43;7.13;;;0.70;70.50;;;;;;4858868;29;20026;-85
2021/03/21 06:54:13;;;;;;;14.05;6.40;;;0.80;70.30;;;;;;4842894;29;20704;-86
2021/03/21 06:57:09;;;;;;;9.82;5.72;;;0.90;69.70;;;;;;4880461;29;20216;-86
2021/03/21 07:00:00;;;;;;;12.68;5.93;;;0.90;69.30;;;;;;4881378;29;20437;-86
2021/03/21 07:03:04;;;;;;;13.55;6.38;;;1.00;69.00;;;;;;4878253;29;20076;-86
2021/03/21 07:05:35;;;;;;;11.57;5.32;;;0.90;68.80;;;;;;4879035;29;20134;-86
2021/03/21 07:08:09;;;;;;;14.82;6.95;;;1.00;69.00;;;;;;4880378;29;20037;-86
2021/03/21 07:10:50;;;;;;;14.88;6.43;;;1.00;69.30;;;;;;4878840;29;20060;-86
2021/03/21 07:13:54;;;;;;;14.48;6.72;;;1.00;69.40;;;;;;4884225;29;20033;-86
2021/03/21 07:16:26;;;;;;;13.23;6.32;;;1.00;69.20;;;;;;4857220;29;20041;-86
2021/03/21 07:19:03;;;;;;;11.27;5.95;;;1.00;69.30;;;;;;4842558;29;20045;-86
2021/03/21 07:21:47;;;;;;;11.55;6.55;;;1.00;69.70;;;;;;4858558;29;20084;-86
2021/03/21 07:24:35;;;;;;;11.05;6.03;;;1.10;69.40;;;;;;4850808;29;20875;-84
2021/03/21 07:27:25;;;;;;;14.90;7.15;;;1.10;69.40;;;;;;4858198;29;20055;-86
2021/03/21 07:30:02;;;;;;;12.50;6.35;;;1.10;69.20;;;;;;4859778;29;20041;-85
2021/03/21 07:32:59;;;;;;;11.38;6.32;;;1.10;69.30;;;;;;4847613;29;20405;-85
2021/03/21 07:35:43;;;;;;;11.90;7.22;;;1.20;69.50;;;;;;4856336;29;20041;-85
2021/03/21 07:38:21;;;;;;;12.52;6.15;;;1.30;69.30;;;;;;4855642;29;20036;-85
2021/03/21 07:41:00;;;;;;;10.15;5.88;;;1.30;69.10;;;;;;4858191;29;20045;-86
2021/03/21 07:44:06;;;;;;;11.63;6.78;;;1.40;69.30;;;;;;4861441;29;20044;-85
2021/03/21 07:46:40;;;;;;;11.23;6.13;;;1.40;69.10;;;;;;4858000;29;20501;-86
2021/03/21 07:49:15;;;;;;;13.05;7.10;;;1.50;68.70;;;;;;4865123;29;20513;-86
2021/03/21 07:52:05;;;;;;;14.52;7.55;;;1.50;69.10;;;;;;4839921;29;20120;-85
2021/03/21 07:54:40;;;;;;;9.30;5.67;;;1.50;69.00;;;;;;4874766;29;20571;-84
2021/03/21 07:57:25;;;;;;;12.30;6.32;;;1.70;69.30;;;;;;4878892;29;20396;-85
2021/03/21 07:59:51;;;;;;;11.68;6.93;;;1.80;68.50;;;;;;4885695;29;20036;-86
2021/03/21 08:02:26;;;;;;;15.82;6.28;;;1.90;68.70;;;;;;4879311;29;20024;-85
2021/03/21 08:05:12;;;;;;;14.38;7.90;;;1.90;68.50;;;;;;4880832;29;20029;-86
2021/03/21 08:07:42;;;;;;;14.07;7.28;;;2.00;68.90;;;;;;4879017;29;20498;-85
2021/03/21 08:10:35;;;;;;;13.85;7.35;;;1.80;69.50;;;;;;4878513;29;20389;-84
2021/03/21 08:13:14;;;;;;;14.45;8.13;;;1.80;70.20;;;;;;4860497;29;20388;-85
2021/03/21 08:15:39;;;;;;;13.57;7.65;;;1.80;70.90;;;;;;4879460;29;20445;-83
2021/03/21 08:18:21;;;;;;;14.70;7.50;;;1.70;71.60;;;;;;4878429;29;20120;-85
2021/03/21 08:20:56;;;;;;;14.50;7.47;;;1.70;72.00;;;;;;4878594;29;20029;-85
2021/03/21 08:23:35;;;;;;;12.68;6.63;;;1.70;72.80;;;;;;4877991;29;20097;-85
2021/03/21 08:26:05;;;;;;;14.23;8.10;;;1.70;72.90;;;;;;4879764;29;20056;-86
2021/03/21 08:28:36;;;;;;;15.13;7.57;;;1.70;73.10;;;;;;4879314;29;20064;-85
2021/03/21 08:31:07;;;;;;;;;;;1.60;73.50;;;;;;4886441;29;20060;-85
2021/03/21 08:33:37;;;;;;;14.45;7.70;;;1.60;73.90;;;;;;4874881;29;20346;-85
2021/03/21 08:36:20;;;;;;;20.60;8.43;;;1.60;73.80;;;;;;4878140;29;20060;-85
2021/03/21 08:39:03;;;;;;;11.70;7.95;;;1.70;74.00;;;;;;4862494;29;20531;-84
2021/03/21 08:41:43;;;;;;;13.55;7.82;;;1.70;74.00;;;;;;4883612;29;20128;-85
2021/03/21 08:44:22;;;;;;;13.40;8.07;;;1.60;74.40;;;;;;4878039;29;20037;-85
2021/03/21 08:46:50;;;;;;;15.73;8.40;;;1.50;75.40;;;;;;4874323;29;20018;-85
2021/03/21 08:49:19;;;;;;;12.60;7.45;;;1.50;75.50;;;;;;4861651;29;20044;-85
2021/03/21 08:51:46;;;;;;;184.50;94.97;;;1.50;75.70;;;;;;4875386;29;20598;-86
2021/03/21 08:54:22;;;;;;;13.80;8.13;;;1.50;76.10;;;;;;4865361;29;20037;-86
2021/03/21 08:56:57;;;;;;;10.98;7.65;;;1.50;76.20;;;;;;4878020;29;20032;-85
2021/03/21 08:59:28;;;;;;;16.60;8.63;;;1.50;76.30;;;;;;4879725;29;20033;-86
2021/03/21 09:02:12;;;;;;;13.27;8.13;;;1.60;77.00;;;;;;4861041;29;20487;-85
2021/03/21 09:04:58;;;;;;;18.02;10.50;;;1.60;77.50;;;;;;4878333;29;20108;-87
2021/03/21 09:07:36;;;;;;;14.65;8.38;;;1.60;78.10;;;;;;4863226;29;20037;-85
2021/03/21 09:10:11;;;;;;;15.07;8.63;;;1.60;78.30;;;;;;4876538;29;20049;-86
2021/03/21 09:12:47;;;;;;;18.17;10.55;;;1.50;80.00;;;;;;4877904;29;20055;-85
2021/03/21 09:15:26;;;;;;;19.30;10.35;;;1.50;82.40;;;;;;4877108;29;20052;-87
2021/03/21 09:18:19;;;;;;;17.27;10.00;;;1.50;83.60;;;;;;4876922;29;20053;-86
2021/03/21 09:20:53;;;;;;;15.55;9.80;;;1.50;83.00;;;;;;4873958;29;20045;-86
2021/03/21 09:23:33;;;;;;;18.88;10.63;;;1.50;83.20;;;;;;4874155;29;20037;-84
2021/03/21 09:26:02;;;;;;;17.83;10.80;;;1.60;83.70;;;;;;4874441;29;20037;-87
2021/03/21 09:28:35;;;;;;;17.63;11.20;;;1.60;84.00;;;;;;4875759;29;20039;-87
2021/03/21 09:31:09;;;;;;;16.80;11.13;;;1.70;84.50;;;;;;4877715;29;20765;-86
2021/03/21 09:33:50;;;;;;;20.23;11.02;;;1.70;84.70;;;;;;4876076;29;20164;-85
2021/03/21 09:36:22;;;;;;;19.92;11.55;;;1.70;85.00;;;;;;4876050;29;20056;-87
2021/03/21 09:38:55;;;;;;;15.63;11.80;;;1.60;85.40;;;;;;4857768;29;20555;-87
2021/03/21 09:41:21;;;;;;;17.98;11.00;;;1.60;86.30;;;;;;4875330;29;20029;-86
2021/03/21 09:43:50;;;;;;;15.60;11.07;;;1.60;85.90;;;;;;4875923;29;20037;-87
2021/03/21 09:46:22;;;;;;;20.17;12.10;;;1.60;85.50;;;;;;4879928;29;20362;-87
2021/03/21 09:49:12;;;;;;;21.23;11.55;;;1.60;85.80;;;;;;4884107;29;20032;-87
2021/03/21 09:51:46;;;;;;;19.27;11.20;;;1.60;85.80;;;;;;4877054;29;20037;-87
2021/03/21 09:54:46;;;;;;;23.38;12.93;;;1.60;86.10;;;;;;4876210;29;20454;-87
2021/03/21 09:57:44;;;;;;;22.77;13.20;;;1.60;86.10;;;;;;4877515;29;20052;-87
2021/03/21 10:00:16;;;;;;;58.55;35.75;;;1.60;86.50;;;;;;4877122;29;20055;-87
2021/03/21 10:02:46;;;;;;;28.23;17.88;;;1.60;86.90;;;;;;4874069;29;20149;-87
2021/03/21 10:05:35;;;;;;;22.80;13.00;;;1.70;86.50;;;;;;4878942;29;20029;-87
2021/03/21 10:08:19;;;;;;;21.55;13.07;;;1.70;85.20;;;;;;4877695;29;20136;-86
2021/03/21 10:11:01;;;;;;;16.95;11.93;;;1.70;85.80;;;;;;4886774;29;20132;-87
2021/03/21 10:13:28;;;;;;;21.90;12.85;;;1.70;84.50;;;;;;4855771;29;20385;-87
2021/03/21 10:16:16;;;;;;;25.10;13.23;;;1.70;85.00;;;;;;4876644;29;20040;-86
2021/03/21 10:18:44;;;;;;;19.63;12.05;;;1.70;85.10;;;;;;4877631;29;20503;-86
2021/03/21 10:21:27;;;;;;;17.65;11.82;;;1.70;84.50;;;;;;4873179;29;20025;-87
2021/03/21 10:23:59;;;;;;;17.73;12.25;;;1.80;84.30;;;;;;4876373;29;20026;-89
2021/03/21 10:26:28;;;;;;;17.48;12.00;;;1.80;84.20;;;;;;4877053;29;20032;-87
2021/03/21 10:29:13;;;;;;;19.55;13.43;;;1.90;83.80;;;;;;4875865;29;20040;-86
2021/03/21 10:31:40;;;;;;;22.20;13.57;;;1.90;84.20;;;;;;4874536;29;20492;-87
2021/03/21 10:34:05;;;;;;;20.67;12.57;;;2.00;85.30;;;;;;4875143;29;20045;-87
2021/03/21 10:36:40;;;;;;;19.13;12.93;;;2.10;84.70;;;;;;4859386;29;20036;-86
2021/03/21 10:39:32;;;;;;;21.20;13.45;;;2.20;85.10;;;;;;4864518;29;20040;-86
2021/03/21 10:42:08;;;;;;;21.92;13.65;;;2.10;84.80;;;;;;4882403;29;20107;-87
2021/03/21 10:44:36;;;;;;;20.00;13.52;;;2.10;84.60;;;;;;4877335;29;20072;-88
2021/03/21 10:47:09;;;;;;;24.88;14.23;;;2.10;84.90;;;;;;4875534;29;20035;-87
2021/03/21 10:50:01;;;;;;;23.77;14.23;;;2.00;84.90;;;;;;4877163;29;20037;-86
2021/03/21 10:52:38;;;;;;;21.92;14.05;;;2.00;85.00;;;;;;4879058;29;20056;-87
2021/03/21 10:55:13;;;;;;;37.40;22.83;;;1.90;86.20;;;;;;4876260;29;20472;-88
2021/03/21 10:57:44;;;;;;;19.75;15.02;;;1.90;86.90;;;;;;4856234;29;20403;-84
2021/03/21 11:00:26;;;;;;;23.75;14.57;;;1.80;87.50;;;;;;4875590;29;20036;-88
2021/03/21 11:03:01;;;;;;;22.17;15.25;;;1.80;86.60;;;;;;4873876;29;20029;-86
2021/03/21 11:05:29;;;;;;;23.75;15.55;;;1.80;87.20;;;;;;4872130;29;20032;-85
2021/03/21 11:08:00;;;;;;;22.88;15.70;;;1.70;87.30;;;;;;4875279;29;20040;-86
2021/03/21 11:10:34;;;;;;;20.48;15.05;;;1.70;87.70;;;;;;4855031;29;20496;-86
2021/03/21 11:13:00;;;;;;;18.80;14.43;;;1.80;87.00;;;;;;4876435;29;20526;-87
2021/03/21 11:15:36;;;;;;;18.45;13.65;;;1.80;87.10;;;;;;4860336;29;20033;-87
2021/03/21 11:18:16;;;;;;;18.92;14.25;;;1.80;86.60;;;;;;4874065;29;20033;-87
2021/03/21 11:20:42;;;;;;;24.27;15.18;;;1.90;86.40;;;;;;4877765;29;20083;-86
2021/03/21 11:23:23;;;;;;;22.75;14.63;;;2.00;86.30;;;;;;4895538;29;20104;-87
2021/03/21 11:25:48;;;;;;;;;;;2.00;86.00;;;;;;4878819;29;20547;-87
2021/03/21 11:28:36;;;;;;;26.60;16.13;;;2.00;85.40;;;;;;4880322;29;19912;-86
2021/03/21 11:31:04;;;;;;;23.77;15.55;;;2.10;85.60;;;;;;4877584;29;20033;-86
2021/03/21 11:33:37;;;;;;;23.50;15.13;;;2.00;85.40;;;;;;4886097;29;20159;-88
2021/03/21 11:36:23;;;;;;;23.65;15.18;;;2.00;85.90;;;;;;4879661;29;20045;-85
2021/03/21 11:38:50;;;;;;;29.88;16.60;;;2.00;85.80;;;;;;4879694;29;20065;-87
2021/03/21 11:41:22;;;;;;;24.45;16.30;;;2.00;85.70;;;;;;4875328;29;20021;-88
2021/03/21 11:43:48;;;;;;;24.02;15.70;;;2.10;85.40;;;;;;4863429;29;20029;-87
2021/03/21 11:46:30;;;;;;;25.98;16.55;;;2.00;85.40;;;;;;4876796;29;20105;-87
2021/03/21 11:48:57;;;;;;;24.42;17.58;;;2.10;85.80;;;;;;4876489;29;20499;-87
2021/03/21 11:51:24;;;;;;;23.40;15.82;;;2.20;85.70;;;;;;4878919;29;20512;-88
2021/03/21 11:53:51;;;;;;;23.70;16.33;;;2.20;85.70;;;;;;4881871;29;20037;-87
2021/03/21 11:56:45;;;;;;;25.13;17.08;;;2.20;85.40;;;;;;4878598;29;20036;-84
2021/03/21 11:59:17;;;;;;;23.35;16.00;;;2.20;85.40;;;;;;4857884;29;20389;-86
2021/03/21 12:01:52;;;;;;;25.67;16.13;;;2.30;85.20;;;;;;4878173;29;20033;-87
2021/03/21 12:04:40;;;;;;;25.40;16.02;;;2.30;85.30;;;;;;4876011;29;20056;-87
2021/03/21 12:07:11;;;;;;;28.77;16.33;;;2.30;85.40;;;;;;4878269;29;20029;-85
2021/03/21 12:09:57;;;;;;;24.30;16.15;;;2.30;85.00;;;;;;4879206;29;20116;-85
2021/03/21 12:12:31;;;;;;;23.02;15.70;;;2.30;84.90;;;;;;4879667;29;20041;-87
2021/03/21 12:14:57;;;;;;;25.50;15.95;;;2.40;85.30;;;;;;4885407;29;20070;-88
2021/03/21 12:17:23;;;;;;;24.23;17.00;;;2.40;85.20;;;;;;4881498;29;20056;-87
2021/03/21 12:19:50;;;;;;;21.60;16.42;;;2.40;85.00;;;;;;4878937;29;20048;-86
2021/03/21 12:22:38;;;;;;;23.70;17.10;;;2.50;85.20;;;;;;4869072;29;20033;-85
2021/03/21 12:25:28;;;;;;;25.33;16.20;;;2.60;84.80;;;;;;4879757;29;20380;-85
2021/03/21 12:28:04;;;;;;;24.63;16.70;;;2.60;84.60;;;;;;4875523;29;20037;-85
2021/03/21 12:30:40;;;;;;;23.75;16.17;;;2.60;84.60;;;;;;4861980;29;20040;-86
2021/03/21 12:33:26;;;;;;;25.67;16.77;;;2.70;84.30;;;;;;4875370;29;20033;-85
2021/03/21 12:36:10;;;;;;;22.40;15.88;;;2.80;84.20;;;;;;4878010;29;20492;-87
2021/03/21 12:38:49;;;;;;;22.30;16.77;;;2.80;84.30;;;;;;4862724;29;20069;-85
2021/03/21 12:41:38;;;;;;;31.00;21.92;;;2.80;85.10;;;;;;4877273;29;20087;-88
2021/03/21 12:44:15;;;;;;;25.98;17.48;;;2.80;85.20;;;;;;4878067;29;20039;-86
2021/03/21 12:46:44;;;;;;;29.15;19.40;;;2.70;84.90;;;;;;4877310;29;20037;-85
2021/03/21 12:49:30;;;;;;;24.60;17.42;;;2.70;85.50;;;;;;4863523;29;20579;-85
2021/03/21 12:52:00;;;;;;;27.13;17.48;;;2.80;86.00;;;;;;4873861;29;20029;-87
2021/03/21 12:54:27;;;;;;;25.88;18.50;;;2.80;87.10;;;;;;4860408;29;20040;-87
2021/03/21 12:56:53;;;;;;;25.70;18.02;;;2.70;86.80;;;;;;4880996;29;20036;-87
2021/03/21 12:59:19;;;;;;;25.85;18.00;;;2.70;87.00;;;;;;4882725;29;20484;-87
2021/03/21 13:01:47;;;;;;;23.40;18.33;;;2.60;86.90;;;;;;4877323;29;20801;-87
2021/03/21 13:04:13;;;;;;;25.77;18.70;;;2.60;87.30;;;;;;4878556;29;20051;-89
2021/03/21 13:06:39;;;;;;;24.33;16.83;;;2.60;86.70;;;;;;4874515;29;20037;-88
2021/03/21 13:09:06;;;;;;;27.70;18.77;;;2.60;86.70;;;;;;4876754;29;20049;-86
2021/03/21 13:11:32;;;;;;;23.13;17.75;;;2.50;87.30;;;;;;4877308;29;20029;-85
2021/03/21 13:13:58;;;;;;;25.65;17.48;;;2.60;87.70;;;;;;4874325;29;20423;-88
2021/03/21 13:16:24;;;;;;;21.83;17.48;;;2.60;87.90;;;;;;4881196;29;20475;-87
2021/03/21 13:18:50;;;;;;;24.50;17.42;;;2.60;87.60;;;;;;4859259;29;20037;-87
2021/03/21 13:21:16;;;;;;;26.13;18.48;;;2.60;88.00;;;;;;4874922;29;20116;-88
2021/03/21 13:23:41;;;;;;;26.25;18.30;;;2.60;87.80;;;;;;4857351;29;20051;-87
2021/03/21 13:26:07;;;;;;;28.17;18.02;;;2.60;87.70;;;;;;4874360;29;20024;-86
2021/03/21 13:28:33;;;;;;;23.88;18.25;;;2.60;88.30;;;;;;4876913;29;20128;-88